This is the latest recevied weather packets stored in our database for station/object Waldburg. If no packets are shown the sender has not sent any weather packets the latest 10 day(s).
| Time | Temp. | Humidity | Pressure | Rain* | Wind** | Luminosity | Snow |
|---|---|---|---|---|---|---|---|
| 1778106729 | 7.22° C | 94% | 1009.9 hPa | 0 mm | - | - | - |
| 1778104929 | 7.22° C | 94% | 1009.7 hPa | 0 mm | - | - | - |
| 1778103130 | 7.78° C | 93% | 1009.8 hPa | 6.1 mm | - | - | - |
| 1778101330 | 7.78° C | 93% | 1009.8 hPa | 6.1 mm | - | - | - |
| 1778099531 | 8.33° C | 91% | 1009.6 hPa | 6.1 mm | - | - | - |
| 1778097730 | 8.33° C | 91% | 1009.4 hPa | 6.1 mm | - | - | - |
| 1778095935 | 8.33° C | 91% | 1009 hPa | 6.1 mm | - | - | - |
| 1778094131 | 8.33° C | 91% | 1008.4 hPa | 6.1 mm | - | - | - |
| 1778092330 | 8.89° C | 91% | 1008.1 hPa | 6.1 mm | - | - | - |
| 1778090536 | 9.44° C | 92% | 1008 hPa | 6.1 mm | - | - | - |
| 1778088730 | 8.89° C | 91% | 1007.7 hPa | 6.1 mm | - | - | - |
| 1778086935 | 9.44° C | 93% | 1007.5 hPa | 6.1 mm | - | - | - |
| 1778085130 | 8.89° C | 93% | 1007.1 hPa | 6.1 mm | - | - | - |
| 1778083330 | 8.89° C | 93% | 1007.3 hPa | 5.59 mm | - | - | - |
| 1778081531 | 8.89° C | 94% | 1007.2 hPa | 5.33 mm | - | - | - |
| 1778079730 | 8.33° C | 94% | 1006.6 hPa | 5.33 mm | - | - | - |
| 1778077930 | 8.89° C | 91% | 1006.8 hPa | 2.29 mm | - | - | - |
| 1778076131 | 15° C | 77% | 1004.8 hPa | 0.51 mm | - | - | - |
| 1778074331 | 15.56° C | 80% | 1004.5 hPa | 0.51 mm | - | - | - |
| 1778072531 | 13.89° C | 81% | 1004.2 hPa | 0.25 mm | - | - | - |
| 1778070730 | 14.44° C | 79% | 1004.6 hPa | 0.25 mm | - | - | - |
| 1778068930 | 15° C | 77% | 1004.2 hPa | 0.25 mm | - | - | - |
| 1778067137 | 15.56° C | 69% | 1004 hPa | 0.25 mm | - | - | - |
| 1778065330 | 15.56° C | 68% | 1004.4 hPa | 0.25 mm | - | - | - |
| 1778061734 | 14.44° C | 75% | 1004.7 hPa | 0.25 mm | - | - | - |
* Rain since midnight (hover to see other rain measurements)
** Current wind speed in m/s (hover to see current wind gust speed)